createdAt,value
2022-07-28T00:00:11.008Z,6.43
2022-07-28T00:02:38.592Z,5.88
2022-07-28T00:05:07.078Z,6.15
2022-07-28T00:07:34.951Z,6.63
2022-07-28T00:10:02.361Z,6.40
2022-07-28T00:12:29.639Z,6.05
2022-07-28T00:14:56.918Z,6.10
2022-07-28T00:17:24.250Z,6.20
2022-07-28T00:19:51.542Z,6.13
2022-07-28T00:22:19.440Z,5.93
2022-07-28T00:24:46.812Z,6.00
2022-07-28T00:27:19.142Z,5.68
2022-07-28T00:29:50.349Z,6.53
2022-07-28T00:32:21.701Z,6.03
2022-07-28T00:34:49.152Z,6.07
2022-07-28T00:37:21.289Z,6.03
2022-07-28T00:39:48.608Z,6.18
2022-07-28T00:42:20.304Z,5.90
2022-07-28T00:44:47.959Z,6.40
2022-07-28T00:47:15.400Z,6.30
2022-07-28T00:49:44.440Z,6.10
2022-07-28T00:52:13.035Z,6.05
2022-07-28T00:54:40.884Z,5.90
2022-07-28T00:57:08.389Z,6.13
2022-07-28T00:59:35.853Z,6.28
2022-07-28T01:02:04.416Z,6.10
2022-07-28T01:04:32.206Z,6.15
2022-07-28T01:07:25.810Z,6.00
2022-07-28T01:10:34.887Z,6.13
2022-07-28T01:13:34.117Z,6.32
2022-07-28T01:16:06.333Z,6.47
2022-07-28T01:18:42.691Z,6.15
2022-07-28T01:21:15.746Z,6.32
2022-07-28T01:23:58.868Z,5.90
2022-07-28T01:26:49.179Z,6.22
2022-07-28T01:29:34.975Z,6.35
2022-07-28T01:32:17.301Z,6.07
2022-07-28T01:35:16.057Z,6.10
2022-07-28T01:37:51.747Z,5.88
2022-07-28T01:40:25.426Z,6.15
2022-07-28T01:42:56.939Z,6.07
2022-07-28T01:45:25.701Z,6.45
2022-07-28T01:47:57.062Z,6.07
2022-07-28T01:50:27.180Z,6.28
2022-07-28T01:52:55.942Z,6.22
2022-07-28T01:55:25.193Z,6.00
2022-07-28T01:57:55.633Z,5.88
2022-07-28T02:00:24.095Z,6.00
2022-07-28T02:02:53.049Z,5.97
2022-07-28T02:05:23.730Z,6.05
2022-07-28T02:07:51.844Z,5.97
2022-07-28T02:10:21.558Z,5.88
2022-07-28T02:12:51.277Z,6.28
2022-07-28T02:15:21.245Z,5.80
2022-07-28T02:17:49.825Z,6.38
2022-07-28T02:20:18.880Z,6.45
2022-07-28T02:22:51.402Z,6.18
2022-07-28T02:25:20.634Z,6.10
2022-07-28T02:28:08.049Z,6.38
2022-07-28T02:30:43.631Z,6.10
2022-07-28T02:33:57.997Z,6.68
2022-07-28T02:36:14.256Z,6.53
2022-07-28T02:38:47.169Z,6.53
2022-07-28T02:41:29.177Z,6.85
2022-07-28T02:44:00.859Z,6.28
2022-07-28T02:46:40.565Z,6.57
2022-07-28T02:49:14.028Z,6.60
2022-07-28T02:51:43.581Z,6.38
2022-07-28T02:54:12.504Z,6.20
2022-07-28T02:56:42.276Z,6.30
2022-07-28T02:59:22.042Z,6.53
2022-07-28T03:01:50.655Z,6.82
2022-07-28T03:04:38.917Z,6.50
2022-07-28T03:07:06.840Z,6.97
2022-07-28T03:09:40.429Z,7.00
2022-07-28T03:12:09.009Z,6.88
2022-07-28T03:14:36.867Z,7.30
2022-07-28T03:17:05.231Z,6.80
2022-07-28T03:19:33.618Z,7.07
2022-07-28T03:22:01.238Z,6.68
2022-07-28T03:24:32.669Z,7.03
2022-07-28T03:27:06.785Z,6.90
2022-07-28T03:29:35.778Z,6.80
2022-07-28T03:32:03.216Z,6.40
2022-07-28T03:34:30.772Z,6.30
2022-07-28T03:37:03.653Z,6.85
2022-07-28T03:39:37.639Z,6.70
2022-07-28T03:42:06.157Z,7.00
2022-07-28T03:44:34.165Z,7.00
2022-07-28T03:47:01.506Z,7.22
2022-07-28T03:49:28.786Z,7.70
2022-07-28T03:51:56.285Z,6.90
2022-07-28T03:54:23.670Z,7.18
2022-07-28T03:56:51.160Z,6.97
2022-07-28T03:59:19.777Z,6.95
2022-07-28T04:01:47.645Z,6.63
2022-07-28T04:04:15.667Z,7.28
2022-07-28T04:06:43.237Z,6.53
2022-07-28T04:09:10.704Z,6.85
2022-07-28T04:11:38.098Z,6.72
2022-07-28T04:14:05.424Z,6.85
2022-07-28T04:16:32.682Z,7.18
2022-07-28T04:18:59.989Z,7.43
2022-07-28T04:21:27.368Z,6.78
2022-07-28T04:23:59.840Z,7.97
2022-07-28T04:26:29.122Z,7.40
2022-07-28T04:28:56.382Z,6.60
2022-07-28T04:31:23.722Z,7.18
2022-07-28T04:33:51.158Z,6.75
2022-07-28T04:36:18.642Z,6.35
2022-07-28T04:38:46.107Z,6.53
2022-07-28T04:41:13.342Z,6.60
2022-07-28T04:43:41.552Z,6.50
2022-07-28T04:46:13.189Z,6.28
2022-07-28T04:48:42.328Z,6.47
2022-07-28T04:51:10.238Z,6.50
2022-07-28T04:53:37.629Z,6.72
2022-07-28T04:56:05.274Z,7.03
2022-07-28T04:58:33.243Z,7.20
2022-07-28T05:01:00.554Z,6.95
2022-07-28T05:03:31.536Z,7.25
2022-07-28T05:06:01.555Z,7.10
2022-07-28T05:08:29.170Z,6.72
2022-07-28T05:10:56.747Z,7.00
2022-07-28T05:13:25.982Z,7.28
2022-07-28T05:15:55.098Z,7.40
2022-07-28T05:18:22.516Z,6.82
2022-07-28T05:20:49.857Z,6.85
2022-07-28T05:23:17.791Z,6.45
2022-07-28T05:25:45.279Z,6.82
2022-07-28T05:28:12.596Z,6.63
2022-07-28T05:30:39.885Z,6.45
2022-07-28T05:33:07.214Z,6.57
2022-07-28T05:35:34.502Z,6.38
2022-07-28T05:38:01.920Z,6.20
2022-07-28T05:40:30.172Z,6.38
2022-07-28T05:42:57.444Z,6.40
2022-07-28T05:45:24.857Z,6.82
2022-07-28T05:47:53.763Z,6.70
2022-07-28T05:50:22.422Z,6.85
2022-07-28T05:52:51.465Z,6.60
2022-07-28T05:55:19.170Z,6.70
2022-07-28T05:57:46.858Z,6.82
2022-07-28T06:00:17.158Z,7.05
2022-07-28T06:02:47.371Z,6.63
2022-07-28T06:05:17.254Z,7.30
2022-07-28T06:07:48.947Z,6.93
2022-07-28T06:10:19.971Z,6.95
2022-07-28T06:12:53.224Z,7.18
2022-07-28T06:15:26.137Z,7.10
2022-07-28T06:17:55.689Z,7.53
2022-07-28T06:20:24.555Z,7.35
2022-07-28T06:22:55.022Z,7.70
2022-07-28T06:25:28.067Z,7.93
2022-07-28T06:28:02.890Z,7.65
2022-07-28T06:30:31.067Z,9.07
2022-07-28T06:32:59.408Z,7.43
2022-07-28T06:35:26.725Z,7.40
2022-07-28T06:37:54.947Z,7.40
2022-07-28T06:40:23.146Z,8.10
2022-07-28T06:42:50.602Z,7.45
2022-07-28T06:45:19.550Z,7.47
2022-07-28T06:47:52.704Z,7.38
2022-07-28T06:50:26.097Z,7.82
2022-07-28T06:52:58.938Z,8.02
2022-07-28T06:55:28.443Z,7.95
2022-07-28T06:58:04.188Z,7.68
2022-07-28T07:00:31.696Z,8.18
2022-07-28T07:03:00.653Z,7.47
2022-07-28T07:05:32.577Z,7.85
2022-07-28T07:08:00.548Z,7.30
2022-07-28T07:10:27.947Z,8.15
2022-07-28T07:12:55.250Z,8.13
2022-07-28T07:15:22.588Z,8.50
2022-07-28T07:17:49.938Z,8.02
2022-07-28T07:20:18.202Z,7.70
2022-07-28T07:22:47.122Z,8.65
2022-07-28T07:25:16.920Z,9.73
2022-07-28T07:27:45.174Z,9.00
2022-07-28T07:30:13.773Z,9.10
2022-07-28T07:32:41.738Z,8.35
2022-07-28T07:35:09.920Z,8.73
2022-07-28T07:37:37.224Z,7.88
2022-07-28T07:40:06.375Z,7.63
2022-07-28T07:42:33.867Z,8.68
2022-07-28T07:45:01.495Z,8.18
2022-07-28T07:47:29.043Z,8.57
2022-07-28T07:49:56.378Z,7.95
2022-07-28T07:52:23.727Z,7.82
2022-07-28T07:54:51.010Z,7.88
2022-07-28T07:57:18.350Z,8.38
2022-07-28T07:59:45.621Z,8.18
2022-07-28T08:02:12.957Z,7.95
2022-07-28T08:04:40.438Z,7.80
2022-07-28T08:07:07.991Z,8.30
2022-07-28T08:09:35.442Z,7.90
2022-07-28T08:12:03.257Z,8.25
2022-07-28T08:14:30.587Z,7.72
2022-07-28T08:16:59.397Z,7.45
2022-07-28T08:19:27.089Z,7.93
2022-07-28T08:21:55.739Z,7.70
2022-07-28T08:24:32.339Z,8.15
2022-07-28T08:27:02.440Z,7.20
2022-07-28T08:29:30.043Z,7.72
2022-07-28T08:31:57.551Z,7.07
2022-07-28T08:34:31.716Z,7.40
2022-07-28T08:37:05.641Z,7.80
2022-07-28T08:39:34.363Z,7.57
2022-07-28T08:42:15.629Z,7.60
2022-07-28T08:45:01.758Z,8.13
2022-07-28T08:47:40.408Z,7.50
2022-07-28T08:50:16.300Z,7.32
2022-07-28T08:52:45.857Z,6.75
2022-07-28T08:55:19.563Z,7.47
2022-07-28T08:57:47.535Z,7.40
2022-07-28T09:00:15.228Z,7.28
2022-07-28T09:02:46.747Z,7.35
2022-07-28T09:05:23.383Z,7.45
2022-07-28T09:07:54.639Z,7.35
2022-07-28T09:12:49.812Z,7.13
2022-07-28T09:15:17.126Z,6.68
2022-07-28T09:17:44.428Z,7.38
2022-07-28T09:20:12.261Z,6.78
2022-07-28T09:22:59.984Z,7.72
2022-07-28T09:25:28.728Z,6.97
2022-07-28T09:27:56.860Z,6.60
2022-07-28T09:30:32.235Z,7.55
2022-07-28T09:33:41.731Z,7.25
2022-07-28T09:36:18.701Z,7.37
2022-07-28T09:38:46.813Z,7.40
2022-07-28T09:41:14.701Z,7.00
2022-07-28T09:43:44.889Z,7.60
2022-07-28T09:46:13.311Z,7.07
2022-07-28T09:48:49.910Z,7.43
2022-07-28T09:51:45.429Z,7.25
2022-07-28T09:54:15.123Z,6.95
2022-07-28T09:56:45.105Z,7.20
2022-07-28T09:59:14.496Z,8.20
2022-07-28T10:01:55.653Z,7.15
2022-07-28T10:04:38.414Z,6.63
2022-07-28T10:07:11.521Z,7.22
2022-07-28T10:09:39.779Z,7.10
2022-07-28T10:12:22.345Z,7.20
2022-07-28T10:14:52.194Z,6.97
2022-07-28T10:17:26.566Z,7.28
2022-07-28T10:19:55.294Z,7.80
2022-07-28T10:22:25.318Z,7.70
2022-07-28T10:24:53.865Z,7.50
2022-07-28T10:27:26.238Z,7.03
2022-07-28T10:29:59.495Z,7.15
2022-07-28T10:32:29.727Z,6.63
2022-07-28T10:35:08.592Z,7.60
2022-07-28T10:37:49.414Z,7.80
2022-07-28T10:40:18.647Z,7.20
2022-07-28T10:42:46.039Z,7.43
2022-07-28T10:45:13.850Z,6.90
2022-07-28T10:47:42.158Z,6.85
2022-07-28T10:50:10.159Z,7.07
2022-07-28T10:52:49.886Z,7.10
2022-07-28T10:55:36.903Z,6.97
2022-07-28T10:58:33.766Z,7.68
2022-07-28T11:01:05.929Z,6.13
2022-07-28T11:03:36.732Z,6.25
2022-07-28T11:06:31.948Z,6.65
2022-07-28T11:09:19.522Z,6.40
2022-07-28T11:12:05.577Z,6.55
2022-07-28T11:14:39.152Z,6.40
2022-07-28T11:17:10.772Z,6.18
2022-07-28T11:22:34.160Z,6.65
2022-07-28T11:25:20.512Z,6.75
2022-07-28T11:27:50.727Z,7.00
2022-07-28T11:30:33.667Z,6.80
2022-07-28T11:33:02.892Z,7.03
2022-07-28T11:35:31.551Z,6.03
2022-07-28T11:38:01.800Z,6.30
2022-07-28T11:40:51.550Z,6.40
2022-07-28T11:43:35.639Z,6.25
2022-07-28T11:46:07.868Z,6.68
2022-07-28T11:48:42.914Z,6.70
2022-07-28T11:51:12.054Z,6.53
2022-07-28T11:53:48.062Z,6.88
2022-07-28T11:56:26.253Z,7.25
2022-07-28T11:59:11.527Z,6.57
2022-07-28T12:01:51.240Z,6.20
2022-07-28T12:04:20.080Z,6.70
2022-07-28T12:06:52.459Z,7.30
2022-07-28T12:09:25.480Z,6.82
2022-07-28T12:11:56.003Z,6.40
2022-07-28T12:14:23.369Z,6.38
2022-07-28T12:16:52.336Z,5.97
2022-07-28T12:19:21.571Z,6.57
2022-07-28T12:21:49.951Z,6.82
2022-07-28T12:24:30.399Z,6.28
2022-07-28T12:27:00.439Z,6.25
2022-07-28T12:29:35.790Z,6.43
2022-07-28T12:32:06.001Z,7.03
2022-07-28T12:34:35.538Z,6.55
2022-07-28T12:37:05.494Z,6.65
2022-07-28T12:39:39.860Z,6.05
2022-07-28T12:42:10.113Z,6.15
2022-07-28T12:44:48.689Z,6.80
2022-07-28T12:47:24.593Z,6.65
2022-07-28T12:50:14.049Z,6.30
2022-07-28T12:52:43.830Z,6.50
2022-07-28T12:55:22.395Z,6.30
2022-07-28T12:57:52.185Z,6.40
2022-07-28T13:00:27.997Z,6.43
2022-07-28T13:02:57.650Z,6.45
2022-07-28T13:05:33.075Z,6.95
2022-07-28T13:08:05.793Z,7.13
2022-07-28T13:10:33.484Z,6.57
2022-07-28T13:13:04.431Z,7.30
2022-07-28T13:15:32.030Z,6.70
2022-07-28T13:17:59.957Z,6.70
2022-07-28T13:20:27.713Z,6.78
2022-07-28T13:22:56.185Z,7.10
2022-07-28T13:25:23.591Z,6.90
2022-07-28T13:27:55.492Z,6.32
2022-07-28T13:30:23.872Z,6.50
2022-07-28T13:32:51.626Z,6.82
2022-07-28T13:35:20.896Z,6.28
2022-07-28T13:37:48.842Z,5.95
2022-07-28T13:40:16.137Z,6.18
2022-07-28T13:42:52.894Z,6.30
2022-07-28T13:45:23.852Z,6.28
2022-07-28T13:47:52.037Z,5.88
2022-07-28T13:50:21.153Z,6.05
2022-07-28T13:52:48.709Z,6.07
2022-07-28T13:55:19.219Z,6.28
2022-07-28T13:57:50.300Z,6.50
2022-07-28T14:00:22.581Z,5.80
2022-07-28T14:02:50.432Z,6.15
2022-07-28T14:05:17.915Z,6.47
2022-07-28T14:07:48.386Z,6.07
2022-07-28T14:10:18.257Z,6.10
2022-07-28T14:12:46.632Z,6.10
2022-07-28T14:15:14.524Z,6.50
2022-07-28T14:17:43.697Z,6.47
2022-07-28T14:20:14.344Z,6.72
2022-07-28T14:22:42.701Z,6.53
2022-07-28T14:25:10.462Z,6.53
2022-07-28T14:27:38.552Z,6.47
2022-07-28T14:30:06.937Z,6.45
2022-07-28T14:32:34.456Z,6.70
2022-07-28T14:35:02.552Z,6.20
2022-07-28T14:37:36.285Z,6.60
2022-07-28T14:40:16.453Z,6.60
2022-07-28T14:42:44.218Z,6.60
2022-07-28T14:45:12.655Z,6.35
2022-07-28T14:47:44.469Z,6.10
2022-07-28T14:50:13.301Z,6.32
2022-07-28T14:52:40.697Z,6.20
2022-07-28T14:55:12.390Z,6.50
2022-07-28T14:57:48.006Z,6.10
2022-07-28T15:00:23.022Z,5.88
2022-07-28T15:02:53.130Z,6.15
2022-07-28T15:05:21.984Z,6.10
2022-07-28T15:07:52.171Z,6.10
2022-07-28T15:10:20.548Z,6.18
2022-07-28T15:12:50.862Z,5.90
2022-07-28T15:15:18.520Z,5.82
2022-07-28T15:17:45.803Z,5.90
2022-07-28T15:20:13.247Z,6.20
2022-07-28T15:22:40.539Z,5.97
2022-07-28T15:25:08.350Z,5.63
2022-07-28T15:27:35.639Z,6.22
2022-07-28T15:30:03.520Z,5.88
2022-07-28T15:32:39.818Z,5.43
2022-07-28T15:35:14.815Z,6.10
2022-07-28T15:37:42.547Z,5.45
2022-07-28T15:40:10.501Z,5.85
2022-07-28T15:42:37.805Z,5.47
2022-07-28T15:45:05.641Z,6.43
2022-07-28T15:47:33.897Z,5.88
2022-07-28T15:50:01.132Z,5.63
2022-07-28T15:52:28.403Z,5.97
2022-07-28T15:54:56.763Z,6.57
2022-07-28T15:57:23.994Z,6.20
2022-07-28T15:59:51.324Z,5.50
2022-07-28T16:02:19.444Z,5.30
2022-07-28T16:04:49.055Z,5.50
2022-07-28T16:07:24.697Z,5.80
2022-07-28T16:09:54.922Z,5.50
2022-07-28T16:12:24.959Z,6.10
2022-07-28T16:14:54.149Z,6.43
2022-07-28T16:17:22.729Z,6.30
2022-07-28T16:19:51.302Z,5.70
2022-07-28T16:22:20.027Z,5.70
2022-07-28T16:24:48.097Z,5.60
2022-07-28T16:27:15.388Z,6.22
2022-07-28T16:29:43.280Z,5.85
2022-07-28T16:32:10.790Z,5.88
2022-07-28T16:34:38.183Z,6.05
2022-07-28T16:37:05.928Z,5.90
2022-07-28T16:39:34.489Z,5.70
2022-07-28T16:42:03.007Z,5.90
2022-07-28T16:44:31.462Z,5.88
2022-07-28T16:46:59.064Z,7.07
2022-07-28T16:49:26.501Z,6.15
2022-07-28T16:51:55.549Z,6.10
2022-07-28T16:54:23.184Z,6.18
2022-07-28T16:56:51.189Z,5.47
2022-07-28T16:59:18.458Z,6.10
2022-07-28T17:01:46.698Z,6.43
2022-07-28T17:04:16.200Z,6.03
2022-07-28T17:06:43.985Z,6.35
2022-07-28T17:09:12.464Z,5.78
2022-07-28T17:11:41.830Z,5.72
2022-07-28T17:14:10.587Z,5.28
2022-07-28T17:16:38.186Z,5.95
2022-07-28T17:19:05.711Z,5.13
2022-07-28T17:21:32.995Z,4.88
2022-07-28T17:24:00.286Z,5.22
2022-07-28T17:29:15.306Z,5.35
2022-07-28T17:31:43.464Z,5.78
2022-07-28T17:34:10.856Z,5.55
2022-07-28T17:36:41.330Z,5.07
2022-07-28T17:39:09.451Z,5.45
2022-07-28T17:41:36.752Z,5.25
2022-07-28T17:44:04.236Z,5.70
2022-07-28T17:46:32.451Z,5.72
2022-07-28T17:49:02.235Z,5.60
2022-07-28T17:51:30.902Z,7.00
2022-07-28T17:53:58.266Z,6.60
2022-07-28T17:56:26.016Z,7.43
2022-07-28T17:58:53.638Z,8.23
2022-07-28T18:01:20.966Z,6.00
2022-07-28T18:03:59.189Z,5.60
2022-07-28T18:06:30.505Z,5.75
2022-07-28T18:09:05.703Z,5.82
2022-07-28T18:11:38.602Z,5.90
2022-07-28T18:14:24.750Z,6.43
2022-07-28T18:16:52.120Z,5.93
2022-07-28T18:19:19.503Z,6.57
2022-07-28T18:21:46.818Z,8.18
2022-07-28T18:24:14.426Z,6.32
2022-07-28T18:26:42.118Z,6.30
2022-07-28T18:29:09.494Z,6.78
2022-07-28T18:31:42.539Z,6.53
2022-07-28T18:34:13.139Z,6.40
2022-07-28T18:36:40.777Z,6.18
2022-07-28T18:39:08.698Z,5.40
2022-07-28T18:41:46.732Z,6.15
2022-07-28T18:44:19.845Z,6.13
2022-07-28T18:46:47.835Z,6.38
2022-07-28T18:49:15.467Z,5.78
2022-07-28T18:51:44.948Z,6.20
2022-07-28T18:54:18.791Z,6.13
2022-07-28T18:56:49.517Z,6.03
2022-07-28T18:59:16.957Z,6.15
2022-07-28T19:01:44.431Z,5.90
2022-07-28T19:04:11.834Z,6.32
2022-07-28T19:06:39.210Z,7.22
2022-07-28T19:09:06.626Z,6.03
2022-07-28T19:11:34.099Z,6.22
2022-07-28T19:14:01.776Z,6.20
2022-07-28T19:16:29.056Z,6.20
2022-07-28T19:18:56.320Z,6.22
2022-07-28T19:21:24.496Z,6.45
2022-07-28T19:23:53.079Z,6.40
2022-07-28T19:26:21.724Z,7.32
2022-07-28T19:28:48.951Z,6.38
2022-07-28T19:31:16.282Z,6.40
2022-07-28T19:33:43.993Z,6.43
2022-07-28T19:36:13.795Z,5.78
2022-07-28T19:38:41.675Z,5.93
2022-07-28T19:41:09.969Z,6.20
2022-07-28T19:43:37.322Z,7.68
2022-07-28T19:46:05.099Z,6.53
2022-07-28T19:48:32.357Z,7.50
2022-07-28T19:50:59.854Z,6.75
2022-07-28T19:53:31.768Z,6.55
2022-07-28T19:55:59.822Z,5.90
2022-07-28T19:58:28.041Z,6.05
2022-07-28T20:00:56.569Z,6.10
2022-07-28T20:04:01.575Z,6.38
2022-07-28T20:06:12.254Z,5.80
2022-07-28T20:08:40.059Z,6.40
2022-07-28T20:11:07.891Z,6.85
2022-07-28T20:13:35.375Z,6.15
2022-07-28T20:16:02.615Z,5.88
2022-07-28T20:18:29.883Z,6.15
2022-07-28T20:20:57.608Z,6.30
2022-07-28T20:23:24.907Z,6.25
2022-07-28T20:25:52.166Z,5.95
2022-07-28T20:28:19.516Z,6.22
2022-07-28T20:30:46.835Z,6.47
2022-07-28T20:33:14.150Z,6.20
2022-07-28T20:35:41.377Z,6.18
2022-07-28T20:38:08.688Z,5.78
2022-07-28T20:40:35.960Z,6.88
2022-07-28T20:43:03.267Z,6.22
2022-07-28T20:45:31.836Z,6.60
2022-07-28T20:47:59.142Z,6.72
2022-07-28T20:50:26.715Z,6.40
2022-07-28T20:52:53.986Z,6.43
2022-07-28T20:55:21.532Z,5.72
2022-07-28T20:57:53.170Z,6.50
2022-07-28T21:00:21.411Z,6.10
2022-07-28T21:02:48.714Z,7.43
2022-07-28T21:05:26.631Z,6.20
2022-07-28T21:08:05.802Z,6.70
2022-07-28T21:13:01.573Z,8.95
2022-07-28T21:15:29.545Z,6.50
2022-07-28T21:17:57.328Z,6.55
2022-07-28T21:20:25.359Z,6.32
2022-07-28T21:22:52.745Z,6.93
2022-07-28T21:25:20.440Z,6.50
2022-07-28T21:28:06.281Z,6.57
2022-07-28T21:30:33.562Z,6.88
2022-07-28T21:33:00.883Z,7.57
2022-07-28T21:35:28.249Z,7.82
2022-07-28T21:37:55.538Z,8.73
2022-07-28T21:40:23.086Z,6.82
2022-07-28T21:42:51.181Z,6.80
2022-07-28T21:45:18.842Z,7.18
2022-07-28T21:47:48.739Z,7.97
2022-07-28T21:50:16.428Z,6.60
2022-07-28T21:52:44.092Z,6.38
2022-07-28T21:55:12.363Z,6.28
2022-07-28T21:57:39.846Z,5.80
2022-07-28T22:00:12.798Z,6.00
2022-07-28T22:02:42.048Z,6.38
2022-07-28T22:05:10.119Z,5.90
2022-07-28T22:07:37.738Z,5.97
2022-07-28T22:10:06.233Z,6.20
2022-07-28T22:12:33.899Z,6.05
2022-07-28T22:15:01.460Z,5.65
2022-07-28T22:17:28.821Z,6.07
2022-07-28T22:19:56.141Z,5.50
2022-07-28T22:22:23.727Z,5.72
2022-07-28T22:24:51.284Z,5.68
2022-07-28T22:27:18.813Z,5.75
2022-07-28T22:29:51.975Z,5.70
2022-07-28T22:32:28.560Z,5.85
2022-07-28T22:34:59.204Z,6.03
2022-07-28T22:37:26.961Z,5.80
2022-07-28T22:39:54.985Z,5.70
2022-07-28T22:42:23.261Z,5.80
2022-07-28T22:44:50.916Z,5.93
2022-07-28T22:47:18.282Z,5.90
2022-07-28T22:49:45.909Z,5.75
2022-07-28T22:52:13.450Z,6.00
2022-07-28T22:54:41.342Z,6.20
2022-07-28T22:57:11.724Z,6.15
2022-07-28T22:59:40.207Z,6.18
2022-07-28T23:02:11.099Z,6.20
2022-07-28T23:04:39.403Z,5.93
2022-07-28T23:07:15.000Z,5.60
2022-07-28T23:09:43.536Z,6.07
2022-07-28T23:12:12.121Z,6.07
2022-07-28T23:14:41.833Z,5.90
2022-07-28T23:17:09.197Z,6.05
2022-07-28T23:19:36.455Z,6.28
2022-07-28T23:22:04.265Z,5.90
2022-07-28T23:24:31.848Z,6.40
2022-07-28T23:27:00.688Z,6.10
2022-07-28T23:29:28.194Z,5.95
2022-07-28T23:31:55.676Z,6.13
2022-07-28T23:34:22.999Z,5.95
2022-07-28T23:36:51.605Z,5.70
2022-07-28T23:39:18.887Z,5.90
2022-07-28T23:41:47.213Z,5.80
2022-07-28T23:44:14.676Z,5.93
2022-07-28T23:46:42.131Z,5.68
2022-07-28T23:49:10.665Z,6.43
2022-07-28T23:51:46.732Z,5.97
2022-07-28T23:54:16.302Z,5.47
2022-07-28T23:56:44.094Z,6.13
2022-07-28T23:59:14.044Z,6.28
